sensor_id;sensor_type;location;lat;lon;timestamp;P1;durP1;ratioP1;P2;durP2;ratioP2
10114;SDS011;5097;43.260;27.812;2022-09-13T00:02:17;2.97;;;2.03;;
10114;SDS011;5097;43.260;27.812;2022-09-13T00:04:42;2.60;;;2.20;;
10114;SDS011;5097;43.260;27.812;2022-09-13T00:07:07;2.47;;;2.00;;
10114;SDS011;5097;43.260;27.812;2022-09-13T00:09:31;2.60;;;2.33;;
10114;SDS011;5097;43.260;27.812;2022-09-13T00:11:55;2.30;;;2.10;;
10114;SDS011;5097;43.260;27.812;2022-09-13T00:14:19;2.30;;;2.20;;
10114;SDS011;5097;43.260;27.812;2022-09-13T00:16:43;4.50;;;2.50;;
10114;SDS011;5097;43.260;27.812;2022-09-13T00:19:07;2.53;;;2.33;;
10114;SDS011;5097;43.260;27.812;2022-09-13T00:21:33;2.40;;;2.20;;
10114;SDS011;5097;43.260;27.812;2022-09-13T00:23:57;4.57;;;2.23;;
10114;SDS011;5097;43.260;27.812;2022-09-13T00:26:23;2.43;;;2.03;;
10114;SDS011;5097;43.260;27.812;2022-09-13T00:28:48;1.73;;;1.60;;
10114;SDS011;5097;43.260;27.812;2022-09-13T00:31:14;1.97;;;1.73;;
10114;SDS011;5097;43.260;27.812;2022-09-13T00:33:38;2.17;;;2.07;;
10114;SDS011;5097;43.260;27.812;2022-09-13T00:36:04;2.60;;;2.40;;
10114;SDS011;5097;43.260;27.812;2022-09-13T00:38:31;1.93;;;1.80;;
10114;SDS011;5097;43.260;27.812;2022-09-13T00:40:57;3.43;;;2.10;;
10114;SDS011;5097;43.260;27.812;2022-09-13T00:46:04;2.47;;;2.27;;
10114;SDS011;5097;43.260;27.812;2022-09-13T00:48:28;5.37;;;2.70;;
10114;SDS011;5097;43.260;27.812;2022-09-13T00:50:53;2.57;;;2.00;;
10114;SDS011;5097;43.260;27.812;2022-09-13T00:53:19;1.83;;;1.27;;
10114;SDS011;5097;43.260;27.812;2022-09-13T00:55:49;3.27;;;1.67;;
10114;SDS011;5097;43.260;27.812;2022-09-13T00:58:19;1.47;;;1.17;;
10114;SDS011;5097;43.260;27.812;2022-09-13T01:00:46;2.60;;;2.03;;
10114;SDS011;5097;43.260;27.812;2022-09-13T01:03:12;2.20;;;2.00;;
10114;SDS011;5097;43.260;27.812;2022-09-13T01:05:38;2.37;;;2.17;;
10114;SDS011;5097;43.260;27.812;2022-09-13T01:08:09;1.50;;;1.40;;
10114;SDS011;5097;43.260;27.812;2022-09-13T01:10:37;2.23;;;1.53;;
10114;SDS011;5097;43.260;27.812;2022-09-13T01:13:05;1.57;;;1.43;;
10114;SDS011;5097;43.260;27.812;2022-09-13T01:15:36;3.07;;;1.50;;
10114;SDS011;5097;43.260;27.812;2022-09-13T01:18:00;2.80;;;1.70;;
10114;SDS011;5097;43.260;27.812;2022-09-13T01:20:38;1.03;;;1.03;;
10114;SDS011;5097;43.260;27.812;2022-09-13T01:26:25;2.20;;;1.33;;
10114;SDS011;5097;43.260;27.812;2022-09-13T01:29:12;0.97;;;0.97;;
10114;SDS011;5097;43.260;27.812;2022-09-13T01:31:55;0.80;;;0.80;;
10114;SDS011;5097;43.260;27.812;2022-09-13T01:34:30;2.77;;;1.33;;
10114;SDS011;5097;43.260;27.812;2022-09-13T01:40:02;2.67;;;1.10;;
10114;SDS011;5097;43.260;27.812;2022-09-13T01:42:40;2.40;;;1.10;;
10114;SDS011;5097;43.260;27.812;2022-09-13T01:45:19;1.00;;;1.00;;
10114;SDS011;5097;43.260;27.812;2022-09-13T01:47:52;1.10;;;1.00;;
10114;SDS011;5097;43.260;27.812;2022-09-13T01:50:25;1.17;;;1.10;;
10114;SDS011;5097;43.260;27.812;2022-09-13T01:53:01;0.93;;;0.90;;
10114;SDS011;5097;43.260;27.812;2022-09-13T01:55:31;1.90;;;1.53;;
10114;SDS011;5097;43.260;27.812;2022-09-13T01:58:06;2.63;;;1.17;;
10114;SDS011;5097;43.260;27.812;2022-09-13T02:00:45;1.30;;;1.20;;
10114;SDS011;5097;43.260;27.812;2022-09-13T02:03:17;1.00;;;1.00;;
10114;SDS011;5097;43.260;27.812;2022-09-13T02:05:45;0.90;;;0.90;;
10114;SDS011;5097;43.260;27.812;2022-09-13T02:08:15;0.93;;;0.90;;
10114;SDS011;5097;43.260;27.812;2022-09-13T02:10:45;1.40;;;1.10;;
10114;SDS011;5097;43.260;27.812;2022-09-13T02:13:14;0.83;;;0.83;;
10114;SDS011;5097;43.260;27.812;2022-09-13T02:15:43;2.20;;;0.90;;
10114;SDS011;5097;43.260;27.812;2022-09-13T02:18:11;1.47;;;1.30;;
10114;SDS011;5097;43.260;27.812;2022-09-13T02:20:42;1.30;;;1.20;;
10114;SDS011;5097;43.260;27.812;2022-09-13T02:23:12;1.00;;;1.00;;
10114;SDS011;5097;43.260;27.812;2022-09-13T02:25:39;1.17;;;1.17;;
10114;SDS011;5097;43.260;27.812;2022-09-13T02:28:07;4.33;;;2.10;;
10114;SDS011;5097;43.260;27.812;2022-09-13T02:30:36;1.30;;;1.20;;
10114;SDS011;5097;43.260;27.812;2022-09-13T02:33:04;2.10;;;1.00;;
10114;SDS011;5097;43.260;27.812;2022-09-13T02:35:34;1.30;;;1.20;;
10114;SDS011;5097;43.260;27.812;2022-09-13T02:38:03;1.33;;;1.20;;
10114;SDS011;5097;43.260;27.812;2022-09-13T02:40:32;1.77;;;1.17;;
10114;SDS011;5097;43.260;27.812;2022-09-13T02:43:04;1.60;;;1.50;;
10114;SDS011;5097;43.260;27.812;2022-09-13T02:45:36;2.30;;;2.10;;
10114;SDS011;5097;43.260;27.812;2022-09-13T02:48:10;1.40;;;1.13;;
10114;SDS011;5097;43.260;27.812;2022-09-13T02:50:44;1.00;;;1.00;;
10114;SDS011;5097;43.260;27.812;2022-09-13T02:53:22;1.30;;;1.20;;
10114;SDS011;5097;43.260;27.812;2022-09-13T02:55:57;1.30;;;1.27;;
10114;SDS011;5097;43.260;27.812;2022-09-13T02:58:30;1.30;;;1.20;;
10114;SDS011;5097;43.260;27.812;2022-09-13T03:01:00;1.33;;;1.27;;
10114;SDS011;5097;43.260;27.812;2022-09-13T03:03:25;1.40;;;1.30;;
10114;SDS011;5097;43.260;27.812;2022-09-13T03:05:49;1.60;;;1.50;;
10114;SDS011;5097;43.260;27.812;2022-09-13T03:08:14;3.50;;;1.63;;
10114;SDS011;5097;43.260;27.812;2022-09-13T03:10:48;1.70;;;1.60;;
10114;SDS011;5097;43.260;27.812;2022-09-13T03:13:31;3.30;;;2.40;;
10114;SDS011;5097;43.260;27.812;2022-09-13T03:16:10;4.07;;;2.40;;
10114;SDS011;5097;43.260;27.812;2022-09-13T03:18:50;4.80;;;2.33;;
10114;SDS011;5097;43.260;27.812;2022-09-13T03:21:31;2.17;;;1.97;;
10114;SDS011;5097;43.260;27.812;2022-09-13T03:24:07;1.87;;;1.77;;
10114;SDS011;5097;43.260;27.812;2022-09-13T03:26:50;1.50;;;1.40;;
10114;SDS011;5097;43.260;27.812;2022-09-13T03:29:26;1.67;;;1.57;;
10114;SDS011;5097;43.260;27.812;2022-09-13T03:32:01;2.80;;;1.60;;
10114;SDS011;5097;43.260;27.812;2022-09-13T03:34:41;1.83;;;1.67;;
10114;SDS011;5097;43.260;27.812;2022-09-13T03:37:11;2.43;;;2.23;;
10114;SDS011;5097;43.260;27.812;2022-09-13T03:39:46;2.57;;;2.10;;
10114;SDS011;5097;43.260;27.812;2022-09-13T03:42:17;2.80;;;2.60;;
10114;SDS011;5097;43.260;27.812;2022-09-13T03:44:46;2.83;;;2.20;;
10114;SDS011;5097;43.260;27.812;2022-09-13T03:47:15;3.37;;;1.90;;
10114;SDS011;5097;43.260;27.812;2022-09-13T03:49:41;2.60;;;1.73;;
10114;SDS011;5097;43.260;27.812;2022-09-13T03:52:06;1.97;;;1.63;;
10114;SDS011;5097;43.260;27.812;2022-09-13T03:54:31;1.50;;;1.40;;
10114;SDS011;5097;43.260;27.812;2022-09-13T03:57:05;2.10;;;1.30;;
10114;SDS011;5097;43.260;27.812;2022-09-13T03:59:36;2.00;;;1.53;;
10114;SDS011;5097;43.260;27.812;2022-09-13T04:02:02;2.27;;;1.37;;
10114;SDS011;5097;43.260;27.812;2022-09-13T04:04:26;2.10;;;1.90;;
10114;SDS011;5097;43.260;27.812;2022-09-13T04:06:50;3.47;;;2.17;;
10114;SDS011;5097;43.260;27.812;2022-09-13T04:09:15;1.73;;;1.30;;
10114;SDS011;5097;43.260;27.812;2022-09-13T04:11:39;1.50;;;1.40;;
10114;SDS011;5097;43.260;27.812;2022-09-13T04:14:04;1.87;;;1.40;;
10114;SDS011;5097;43.260;27.812;2022-09-13T04:16:29;1.20;;;1.20;;
10114;SDS011;5097;43.260;27.812;2022-09-13T04:18:53;3.33;;;1.87;;
10114;SDS011;5097;43.260;27.812;2022-09-13T04:21:18;1.77;;;1.60;;
10114;SDS011;5097;43.260;27.812;2022-09-13T04:23:43;4.47;;;1.90;;
10114;SDS011;5097;43.260;27.812;2022-09-13T04:26:12;1.97;;;1.87;;
10114;SDS011;5097;43.260;27.812;2022-09-13T04:28:36;2.80;;;1.67;;
10114;SDS011;5097;43.260;27.812;2022-09-13T04:31:00;1.60;;;1.50;;
10114;SDS011;5097;43.260;27.812;2022-09-13T04:33:25;3.00;;;1.30;;
10114;SDS011;5097;43.260;27.812;2022-09-13T04:35:56;2.93;;;1.70;;
10114;SDS011;5097;43.260;27.812;2022-09-13T04:38:21;4.47;;;1.60;;
10114;SDS011;5097;43.260;27.812;2022-09-13T04:40:50;1.43;;;1.30;;
10114;SDS011;5097;43.260;27.812;2022-09-13T04:43:15;1.10;;;1.00;;
10114;SDS011;5097;43.260;27.812;2022-09-13T04:45:41;1.23;;;1.13;;
10114;SDS011;5097;43.260;27.812;2022-09-13T04:48:05;2.43;;;1.37;;
10114;SDS011;5097;43.260;27.812;2022-09-13T04:50:31;1.00;;;1.00;;
10114;SDS011;5097;43.260;27.812;2022-09-13T04:52:56;2.10;;;1.03;;
10114;SDS011;5097;43.260;27.812;2022-09-13T04:55:21;1.20;;;1.20;;
10114;SDS011;5097;43.260;27.812;2022-09-13T04:57:51;1.37;;;1.20;;
10114;SDS011;5097;43.260;27.812;2022-09-13T05:00:17;1.13;;;1.13;;
10114;SDS011;5097;43.260;27.812;2022-09-13T05:02:41;1.73;;;1.40;;
10114;SDS011;5097;43.260;27.812;2022-09-13T05:05:06;1.40;;;1.30;;
10114;SDS011;5097;43.260;27.812;2022-09-13T05:07:32;3.20;;;2.17;;
10114;SDS011;5097;43.260;27.812;2022-09-13T05:09:56;5.23;;;1.80;;
10114;SDS011;5097;43.260;27.812;2022-09-13T05:12:21;8.53;;;4.77;;
10114;SDS011;5097;43.260;27.812;2022-09-13T05:14:45;3.20;;;2.53;;
10114;SDS011;5097;43.260;27.812;2022-09-13T05:17:09;1.90;;;1.53;;
10114;SDS011;5097;43.260;27.812;2022-09-13T05:19:33;4.70;;;3.53;;
10114;SDS011;5097;43.260;27.812;2022-09-13T05:21:58;4.00;;;2.90;;
10114;SDS011;5097;43.260;27.812;2022-09-13T05:24:23;2.70;;;2.50;;
10114;SDS011;5097;43.260;27.812;2022-09-13T05:26:48;5.40;;;4.37;;
10114;SDS011;5097;43.260;27.812;2022-09-13T05:29:12;6.23;;;5.23;;
10114;SDS011;5097;43.260;27.812;2022-09-13T05:31:38;4.47;;;4.07;;
10114;SDS011;5097;43.260;27.812;2022-09-13T05:34:06;6.97;;;4.43;;
10114;SDS011;5097;43.260;27.812;2022-09-13T05:36:32;5.13;;;3.30;;
10114;SDS011;5097;43.260;27.812;2022-09-13T05:38:57;2.57;;;1.87;;
10114;SDS011;5097;43.260;27.812;2022-09-13T05:41:43;1.80;;;1.50;;
10114;SDS011;5097;43.260;27.812;2022-09-13T05:44:08;2.37;;;1.27;;
10114;SDS011;5097;43.260;27.812;2022-09-13T05:46:36;1.40;;;1.30;;
10114;SDS011;5097;43.260;27.812;2022-09-13T05:49:00;1.67;;;1.03;;
10114;SDS011;5097;43.260;27.812;2022-09-13T05:51:25;1.27;;;1.00;;
10114;SDS011;5097;43.260;27.812;2022-09-13T05:53:51;1.23;;;1.10;;
10114;SDS011;5097;43.260;27.812;2022-09-13T05:56:17;0.80;;;0.80;;
10114;SDS011;5097;43.260;27.812;2022-09-13T05:58:45;1.70;;;0.93;;
10114;SDS011;5097;43.260;27.812;2022-09-13T06:01:11;1.20;;;1.10;;
10114;SDS011;5097;43.260;27.812;2022-09-13T06:03:36;1.57;;;1.30;;
10114;SDS011;5097;43.260;27.812;2022-09-13T06:06:02;2.03;;;1.13;;
10114;SDS011;5097;43.260;27.812;2022-09-13T06:08:29;1.30;;;1.23;;
10114;SDS011;5097;43.260;27.812;2022-09-13T06:10:56;4.03;;;1.23;;
10114;SDS011;5097;43.260;27.812;2022-09-13T06:13:21;3.03;;;1.20;;
10114;SDS011;5097;43.260;27.812;2022-09-13T06:15:47;1.33;;;1.17;;
10114;SDS011;5097;43.260;27.812;2022-09-13T06:18:11;1.70;;;1.07;;
10114;SDS011;5097;43.260;27.812;2022-09-13T06:20:36;1.50;;;1.10;;
10114;SDS011;5097;43.260;27.812;2022-09-13T06:23:00;4.03;;;1.40;;
10114;SDS011;5097;43.260;27.812;2022-09-13T06:25:24;1.63;;;1.05;;
10114;SDS011;5097;43.260;27.812;2022-09-13T06:27:48;1.85;;;1.20;;
10114;SDS011;5097;43.260;27.812;2022-09-13T06:30:12;1.85;;;1.35;;
10114;SDS011;5097;43.260;27.812;2022-09-13T06:32:38;1.10;;;1.10;;
10114;SDS011;5097;43.260;27.812;2022-09-13T06:35:03;4.28;;;1.23;;
10114;SDS011;5097;43.260;27.812;2022-09-13T06:37:28;1.50;;;1.40;;
10114;SDS011;5097;43.260;27.812;2022-09-13T06:39:53;1.75;;;1.30;;
10114;SDS011;5097;43.260;27.812;2022-09-13T06:42:17;1.30;;;1.20;;
10114;SDS011;5097;43.260;27.812;2022-09-13T06:44:41;1.83;;;1.10;;
10114;SDS011;5097;43.260;27.812;2022-09-13T06:47:07;3.40;;;1.10;;
10114;SDS011;5097;43.260;27.812;2022-09-13T06:49:32;1.63;;;1.10;;
10114;SDS011;5097;43.260;27.812;2022-09-13T06:51:57;1.42;;;1.33;;
10114;SDS011;5097;43.260;27.812;2022-09-13T06:54:21;3.65;;;1.45;;
10114;SDS011;5097;43.260;27.812;2022-09-13T06:56:45;2.03;;;1.15;;
10114;SDS011;5097;43.260;27.812;2022-09-13T06:59:09;1.52;;;1.20;;
10114;SDS011;5097;43.260;27.812;2022-09-13T07:01:34;1.38;;;1.30;;
10114;SDS011;5097;43.260;27.812;2022-09-13T07:04:00;2.47;;;1.30;;
10114;SDS011;5097;43.260;27.812;2022-09-13T07:06:28;1.63;;;1.40;;
10114;SDS011;5097;43.260;27.812;2022-09-13T07:08:54;1.70;;;1.58;;
10114;SDS011;5097;43.260;27.812;2022-09-13T07:11:21;3.10;;;1.50;;
10114;SDS011;5097;43.260;27.812;2022-09-13T07:13:46;1.65;;;1.52;;
10114;SDS011;5097;43.260;27.812;2022-09-13T07:16:12;4.60;;;1.90;;
10114;SDS011;5097;43.260;27.812;2022-09-13T07:18:36;4.28;;;1.70;;
10114;SDS011;5097;43.260;27.812;2022-09-13T07:21:01;1.63;;;1.52;;
10114;SDS011;5097;43.260;27.812;2022-09-13T07:23:28;1.80;;;1.70;;
10114;SDS011;5097;43.260;27.812;2022-09-13T07:25:55;2.10;;;1.83;;
10114;SDS011;5097;43.260;27.812;2022-09-13T07:28:35;1.38;;;1.27;;
10114;SDS011;5097;43.260;27.812;2022-09-13T07:31:05;2.92;;;1.50;;
10114;SDS011;5097;43.260;27.812;2022-09-13T07:33:31;1.80;;;1.52;;
10114;SDS011;5097;43.260;27.812;2022-09-13T07:35:56;2.10;;;2.00;;
10114;SDS011;5097;43.260;27.812;2022-09-13T07:38:21;6.38;;;4.50;;
10114;SDS011;5097;43.260;27.812;2022-09-13T07:40:52;2.55;;;2.13;;
10114;SDS011;5097;43.260;27.812;2022-09-13T07:43:19;2.40;;;1.70;;
10114;SDS011;5097;43.260;27.812;2022-09-13T07:45:43;3.55;;;1.38;;
10114;SDS011;5097;43.260;27.812;2022-09-13T07:48:07;2.10;;;1.60;;
10114;SDS011;5097;43.260;27.812;2022-09-13T07:50:32;4.22;;;1.65;;
10114;SDS011;5097;43.260;27.812;2022-09-13T07:52:56;1.70;;;1.60;;
10114;SDS011;5097;43.260;27.812;2022-09-13T07:55:21;1.70;;;1.60;;
10114;SDS011;5097;43.260;27.812;2022-09-13T07:57:46;4.05;;;2.28;;
10114;SDS011;5097;43.260;27.812;2022-09-13T08:00:11;1.77;;;1.67;;
10114;SDS011;5097;43.260;27.812;2022-09-13T08:02:36;1.45;;;1.35;;
10114;SDS011;5097;43.260;27.812;2022-09-13T08:05:00;1.60;;;1.50;;
10114;SDS011;5097;43.260;27.812;2022-09-13T08:07:25;5.35;;;2.22;;
10114;SDS011;5097;43.260;27.812;2022-09-13T08:09:50;3.38;;;1.58;;
10114;SDS011;5097;43.260;27.812;2022-09-13T08:12:16;1.63;;;1.52;;
10114;SDS011;5097;43.260;27.812;2022-09-13T08:14:42;4.88;;;2.05;;
10114;SDS011;5097;43.260;27.812;2022-09-13T08:17:06;2.65;;;1.55;;
10114;SDS011;5097;43.260;27.812;2022-09-13T08:19:32;1.60;;;1.50;;
10114;SDS011;5097;43.260;27.812;2022-09-13T08:21:56;1.67;;;1.58;;
10114;SDS011;5097;43.260;27.812;2022-09-13T08:24:21;1.65;;;1.40;;
10114;SDS011;5097;43.260;27.812;2022-09-13T08:26:45;1.65;;;1.55;;
10114;SDS011;5097;43.260;27.812;2022-09-13T08:29:10;1.73;;;1.30;;
10114;SDS011;5097;43.260;27.812;2022-09-13T08:31:37;1.67;;;1.58;;
10114;SDS011;5097;43.260;27.812;2022-09-13T08:34:01;1.73;;;1.60;;
10114;SDS011;5097;43.260;27.812;2022-09-13T08:36:27;2.13;;;1.80;;
10114;SDS011;5097;43.260;27.812;2022-09-13T08:38:52;2.00;;;1.60;;
10114;SDS011;5097;43.260;27.812;2022-09-13T08:41:23;2.00;;;1.80;;
10114;SDS011;5097;43.260;27.812;2022-09-13T08:44:15;1.92;;;1.73;;
10114;SDS011;5097;43.260;27.812;2022-09-13T08:46:49;1.25;;;1.25;;
10114;SDS011;5097;43.260;27.812;2022-09-13T08:49:16;2.20;;;1.50;;
10114;SDS011;5097;43.260;27.812;2022-09-13T08:51:46;1.63;;;1.52;;
10114;SDS011;5097;43.260;27.812;2022-09-13T08:54:13;4.13;;;1.50;;
10114;SDS011;5097;43.260;27.812;2022-09-13T08:56:40;3.53;;;1.50;;
10114;SDS011;5097;43.260;27.812;2022-09-13T08:59:14;1.60;;;1.50;;
10114;SDS011;5097;43.260;27.812;2022-09-13T09:01:53;1.98;;;1.88;;
10114;SDS011;5097;43.260;27.812;2022-09-13T09:04:32;1.95;;;1.23;;
10114;SDS011;5097;43.260;27.812;2022-09-13T09:07:02;3.80;;;1.52;;
10114;SDS011;5097;43.260;27.812;2022-09-13T09:09:29;1.65;;;1.55;;
10114;SDS011;5097;43.260;27.812;2022-09-13T09:11:59;2.33;;;1.50;;
10114;SDS011;5097;43.260;27.812;2022-09-13T09:14:34;1.70;;;1.60;;
10114;SDS011;5097;43.260;27.812;2022-09-13T09:17:06;1.98;;;1.38;;
10114;SDS011;5097;43.260;27.812;2022-09-13T09:19:37;2.08;;;1.50;;
10114;SDS011;5097;43.260;27.812;2022-09-13T09:22:08;2.30;;;1.25;;
10114;SDS011;5097;43.260;27.812;2022-09-13T09:24:38;1.75;;;1.60;;
10114;SDS011;5097;43.260;27.812;2022-09-13T09:27:09;3.65;;;1.42;;
10114;SDS011;5097;43.260;27.812;2022-09-13T09:29:37;1.80;;;1.70;;
10114;SDS011;5097;43.260;27.812;2022-09-13T09:32:08;2.38;;;1.25;;
10114;SDS011;5097;43.260;27.812;2022-09-13T09:34:48;4.35;;;1.70;;
10114;SDS011;5097;43.260;27.812;2022-09-13T09:37:27;3.95;;;1.50;;
10114;SDS011;5097;43.260;27.812;2022-09-13T09:39:53;2.00;;;1.30;;
10114;SDS011;5097;43.260;27.812;2022-09-13T09:42:25;1.42;;;1.33;;
10114;SDS011;5097;43.260;27.812;2022-09-13T09:44:52;1.88;;;1.40;;
10114;SDS011;5097;43.260;27.812;2022-09-13T09:47:22;1.73;;;1.27;;
10114;SDS011;5097;43.260;27.812;2022-09-13T09:49:52;1.55;;;1.40;;
10114;SDS011;5097;43.260;27.812;2022-09-13T09:52:34;2.88;;;1.40;;
10114;SDS011;5097;43.260;27.812;2022-09-13T09:55:08;1.65;;;1.55;;
10114;SDS011;5097;43.260;27.812;2022-09-13T09:57:49;1.42;;;1.33;;
10114;SDS011;5097;43.260;27.812;2022-09-13T10:00:16;1.40;;;1.35;;
10114;SDS011;5097;43.260;27.812;2022-09-13T10:02:43;1.70;;;1.17;;
10114;SDS011;5097;43.260;27.812;2022-09-13T10:05:09;1.55;;;1.45;;
10114;SDS011;5097;43.260;27.812;2022-09-13T10:07:34;1.77;;;1.10;;
10114;SDS011;5097;43.260;27.812;2022-09-13T10:09:59;1.98;;;1.58;;
10114;SDS011;5097;43.260;27.812;2022-09-13T10:12:28;1.80;;;1.40;;
10114;SDS011;5097;43.260;27.812;2022-09-13T10:15:02;1.50;;;1.25;;
10114;SDS011;5097;43.260;27.812;2022-09-13T10:17:29;2.25;;;1.42;;
10114;SDS011;5097;43.260;27.812;2022-09-13T10:19:55;2.05;;;1.42;;
10114;SDS011;5097;43.260;27.812;2022-09-13T10:22:25;1.67;;;1.40;;
10114;SDS011;5097;43.260;27.812;2022-09-13T10:24:53;2.53;;;1.35;;
10114;SDS011;5097;43.260;27.812;2022-09-13T10:27:19;3.58;;;1.30;;
10114;SDS011;5097;43.260;27.812;2022-09-13T10:29:47;1.42;;;1.27;;
10114;SDS011;5097;43.260;27.812;2022-09-13T10:32:16;1.65;;;1.25;;
10114;SDS011;5097;43.260;27.812;2022-09-13T10:34:41;1.65;;;1.55;;
10114;SDS011;5097;43.260;27.812;2022-09-13T10:37:12;1.48;;;1.38;;
10114;SDS011;5097;43.260;27.812;2022-09-13T10:39:48;3.25;;;1.48;;
10114;SDS011;5097;43.260;27.812;2022-09-13T10:42:16;1.50;;;1.40;;
10114;SDS011;5097;43.260;27.812;2022-09-13T10:44:52;1.40;;;1.27;;
10114;SDS011;5097;43.260;27.812;2022-09-13T10:47:20;1.77;;;1.42;;
10114;SDS011;5097;43.260;27.812;2022-09-13T10:49:47;1.63;;;1.13;;
10114;SDS011;5097;43.260;27.812;2022-09-13T10:52:29;3.22;;;1.38;;
10114;SDS011;5097;43.260;27.812;2022-09-13T10:54:57;1.40;;;1.30;;
10114;SDS011;5097;43.260;27.812;2022-09-13T10:57:50;2.70;;;1.65;;
10114;SDS011;5097;43.260;27.812;2022-09-13T11:00:16;1.40;;;1.30;;
10114;SDS011;5097;43.260;27.812;2022-09-13T11:02:53;1.90;;;1.80;;
10114;SDS011;5097;43.260;27.812;2022-09-13T11:05:39;2.72;;;1.55;;
10114;SDS011;5097;43.260;27.812;2022-09-13T11:08:14;1.63;;;1.52;;
10114;SDS011;5097;43.260;27.812;2022-09-13T11:10:52;2.10;;;1.52;;
10114;SDS011;5097;43.260;27.812;2022-09-13T11:13:26;1.55;;;1.10;;
10114;SDS011;5097;43.260;27.812;2022-09-13T11:16:05;2.20;;;1.50;;
10114;SDS011;5097;43.260;27.812;2022-09-13T11:18:46;2.67;;;1.40;;
10114;SDS011;5097;43.260;27.812;2022-09-13T11:21:27;1.65;;;1.55;;
10114;SDS011;5097;43.260;27.812;2022-09-13T11:24:09;2.70;;;1.55;;
10114;SDS011;5097;43.260;27.812;2022-09-13T11:26:53;1.70;;;1.30;;
10114;SDS011;5097;43.260;27.812;2022-09-13T11:29:27;2.38;;;1.23;;
10114;SDS011;5097;43.260;27.812;2022-09-13T11:32:04;1.40;;;1.30;;
10114;SDS011;5097;43.260;27.812;2022-09-13T11:34:40;3.50;;;1.35;;
10114;SDS011;5097;43.260;27.812;2022-09-13T11:37:26;1.27;;;1.15;;
10114;SDS011;5097;43.260;27.812;2022-09-13T11:40:09;1.63;;;1.30;;
10114;SDS011;5097;43.260;27.812;2022-09-13T11:42:50;4.43;;;1.67;;
10114;SDS011;5097;43.260;27.812;2022-09-13T11:45:23;3.63;;;2.30;;
10114;SDS011;5097;43.260;27.812;2022-09-13T11:50:59;3.92;;;2.08;;
10114;SDS011;5097;43.260;27.812;2022-09-13T11:53:38;1.90;;;1.80;;
10114;SDS011;5097;43.260;27.812;2022-09-13T11:56:18;2.38;;;2.17;;
10114;SDS011;5097;43.260;27.812;2022-09-13T11:58:47;2.05;;;1.85;;
10114;SDS011;5097;43.260;27.812;2022-09-13T12:01:16;6.50;;;1.88;;
10114;SDS011;5097;43.260;27.812;2022-09-13T12:03:48;1.77;;;1.67;;
10114;SDS011;5097;43.260;27.812;2022-09-13T12:06:21;4.82;;;2.22;;
10114;SDS011;5097;43.260;27.812;2022-09-13T12:08:49;1.92;;;1.83;;
10114;SDS011;5097;43.260;27.812;2022-09-13T12:11:19;1.42;;;1.33;;
10114;SDS011;5097;43.260;27.812;2022-09-13T12:13:49;1.52;;;1.42;;
10114;SDS011;5097;43.260;27.812;2022-09-13T12:16:18;2.08;;;1.77;;
10114;SDS011;5097;43.260;27.812;2022-09-13T12:18:47;3.47;;;1.55;;
10114;SDS011;5097;43.260;27.812;2022-09-13T12:21:13;1.75;;;1.65;;
10114;SDS011;5097;43.260;27.812;2022-09-13T12:23:45;1.45;;;1.33;;
10114;SDS011;5097;43.260;27.812;2022-09-13T12:26:19;3.63;;;1.60;;
10114;SDS011;5097;43.260;27.812;2022-09-13T12:28:47;2.00;;;1.40;;
10114;SDS011;5097;43.260;27.812;2022-09-13T12:31:16;1.40;;;1.30;;
10114;SDS011;5097;43.260;27.812;2022-09-13T12:33:43;1.30;;;1.23;;
10114;SDS011;5097;43.260;27.812;2022-09-13T12:36:14;2.20;;;1.30;;
10114;SDS011;5097;43.260;27.812;2022-09-13T12:39:05;1.27;;;1.23;;
10114;SDS011;5097;43.260;27.812;2022-09-13T12:41:54;1.15;;;1.15;;
10114;SDS011;5097;43.260;27.812;2022-09-13T12:44:40;2.10;;;1.40;;
10114;SDS011;5097;43.260;27.812;2022-09-13T12:47:23;1.65;;;1.38;;
10114;SDS011;5097;43.260;27.812;2022-09-13T12:50:11;1.10;;;1.10;;
10114;SDS011;5097;43.260;27.812;2022-09-13T12:53:08;1.77;;;1.20;;
10114;SDS011;5097;43.260;27.812;2022-09-13T12:55:58;2.45;;;1.45;;
10114;SDS011;5097;43.260;27.812;2022-09-13T12:58:33;1.38;;;1.38;;
10114;SDS011;5097;43.260;27.812;2022-09-13T13:01:11;1.30;;;1.20;;
10114;SDS011;5097;43.260;27.812;2022-09-13T13:03:42;2.13;;;1.35;;
10114;SDS011;5097;43.260;27.812;2022-09-13T13:06:16;3.65;;;1.30;;
10114;SDS011;5097;43.260;27.812;2022-09-13T13:08:59;2.10;;;1.50;;
10114;SDS011;5097;43.260;27.812;2022-09-13T13:11:28;1.23;;;1.23;;
10114;SDS011;5097;43.260;27.812;2022-09-13T13:14:04;1.98;;;1.45;;
10114;SDS011;5097;43.260;27.812;2022-09-13T13:16:32;1.60;;;1.50;;
10114;SDS011;5097;43.260;27.812;2022-09-13T13:18:59;1.67;;;1.60;;
10114;SDS011;5097;43.260;27.812;2022-09-13T13:21:25;1.83;;;1.20;;
10114;SDS011;5097;43.260;27.812;2022-09-13T13:26:55;4.25;;;2.28;;
10114;SDS011;5097;43.260;27.812;2022-09-13T13:29:22;2.22;;;2.03;;
10114;SDS011;5097;43.260;27.812;2022-09-13T13:32:08;11.75;;;3.00;;
10114;SDS011;5097;43.260;27.812;2022-09-13T13:34:39;6.63;;;2.70;;
10114;SDS011;5097;43.260;27.812;2022-09-13T13:37:20;4.10;;;2.10;;
10114;SDS011;5097;43.260;27.812;2022-09-13T13:42:48;5.40;;;2.42;;
10114;SDS011;5097;43.260;27.812;2022-09-13T13:45:15;10.05;;;3.05;;
10114;SDS011;5097;43.260;27.812;2022-09-13T13:53:40;3.95;;;2.65;;
10114;SDS011;5097;43.260;27.812;2022-09-13T13:56:07;3.70;;;2.20;;
10114;SDS011;5097;43.260;27.812;2022-09-13T13:58:43;4.65;;;2.60;;
10114;SDS011;5097;43.260;27.812;2022-09-13T14:01:13;6.55;;;2.20;;
10114;SDS011;5097;43.260;27.812;2022-09-13T14:03:54;6.45;;;2.67;;
10114;SDS011;5097;43.260;27.812;2022-09-13T14:06:32;4.75;;;2.70;;
10114;SDS011;5097;43.260;27.812;2022-09-13T14:09:15;4.30;;;2.30;;
10114;SDS011;5097;43.260;27.812;2022-09-13T14:11:58;6.03;;;2.20;;
10114;SDS011;5097;43.260;27.812;2022-09-13T14:14:39;2.88;;;1.98;;
10114;SDS011;5097;43.260;27.812;2022-09-13T14:17:25;6.32;;;2.05;;
10114;SDS011;5097;43.260;27.812;2022-09-13T14:20:12;1.95;;;1.85;;
10114;SDS011;5097;43.260;27.812;2022-09-13T14:22:41;3.33;;;2.60;;
10114;SDS011;5097;43.260;27.812;2022-09-13T14:25:12;2.08;;;1.88;;
10114;SDS011;5097;43.260;27.812;2022-09-13T14:27:42;2.58;;;2.38;;
10114;SDS011;5097;43.260;27.812;2022-09-13T14:30:15;3.08;;;2.08;;
10114;SDS011;5097;43.260;27.812;2022-09-13T14:32:44;2.45;;;1.80;;
10114;SDS011;5097;43.260;27.812;2022-09-13T14:35:22;2.53;;;1.80;;
10114;SDS011;5097;43.260;27.812;2022-09-13T14:37:49;2.47;;;2.22;;
10114;SDS011;5097;43.260;27.812;2022-09-13T14:40:15;2.35;;;1.88;;
10114;SDS011;5097;43.260;27.812;2022-09-13T14:42:42;3.90;;;1.98;;
10114;SDS011;5097;43.260;27.812;2022-09-13T14:45:11;5.22;;;1.98;;
10114;SDS011;5097;43.260;27.812;2022-09-13T14:47:37;2.17;;;1.98;;
10114;SDS011;5097;43.260;27.812;2022-09-13T14:50:13;3.42;;;2.00;;
10114;SDS011;5097;43.260;27.812;2022-09-13T14:52:41;2.03;;;1.88;;
10114;SDS011;5097;43.260;27.812;2022-09-13T14:55:11;2.45;;;2.10;;
10114;SDS011;5097;43.260;27.812;2022-09-13T14:57:41;2.95;;;1.95;;
10114;SDS011;5097;43.260;27.812;2022-09-13T15:00:15;3.05;;;2.22;;
10114;SDS011;5097;43.260;27.812;2022-09-13T15:02:42;2.47;;;2.30;;
10114;SDS011;5097;43.260;27.812;2022-09-13T15:05:13;5.93;;;2.97;;
10114;SDS011;5097;43.260;27.812;2022-09-13T15:07:39;6.03;;;4.55;;
10114;SDS011;5097;43.260;27.812;2022-09-13T15:10:06;10.15;;;7.80;;
10114;SDS011;5097;43.260;27.812;2022-09-13T15:12:32;7.18;;;6.22;;
10114;SDS011;5097;43.260;27.812;2022-09-13T15:15:20;6.25;;;5.45;;
10114;SDS011;5097;43.260;27.812;2022-09-13T15:17:53;4.38;;;3.50;;
10114;SDS011;5097;43.260;27.812;2022-09-13T15:20:18;5.35;;;2.83;;
10114;SDS011;5097;43.260;27.812;2022-09-13T15:22:44;3.20;;;2.80;;
10114;SDS011;5097;43.260;27.812;2022-09-13T15:25:15;4.00;;;2.60;;
10114;SDS011;5097;43.260;27.812;2022-09-13T15:27:43;4.15;;;2.92;;
10114;SDS011;5097;43.260;27.812;2022-09-13T15:30:17;4.90;;;2.28;;